createdAt,value
2018-05-10T00:00:26.391Z,5.43
2018-05-10T00:02:55.710Z,5.13
2018-05-10T00:05:24.835Z,5.40
2018-05-10T00:07:53.210Z,5.50
2018-05-10T00:10:21.415Z,6.13
2018-05-10T00:12:49.682Z,4.90
2018-05-10T00:15:17.962Z,4.90
2018-05-10T00:17:46.451Z,5.27
2018-05-10T00:20:14.727Z,5.50
2018-05-10T00:22:42.986Z,5.20
2018-05-10T00:25:11.290Z,4.90
2018-05-10T00:27:39.550Z,5.60
2018-05-10T00:30:08.806Z,5.43
2018-05-10T00:32:37.296Z,5.47
2018-05-10T00:35:05.568Z,5.00
2018-05-10T00:37:35.509Z,4.87
2018-05-10T00:40:04.693Z,5.27
2018-05-10T00:42:32.969Z,5.40
2018-05-10T00:45:01.540Z,5.27
2018-05-10T00:47:29.813Z,5.30
2018-05-10T00:49:58.267Z,4.70
2018-05-10T00:52:26.531Z,4.80
2018-05-10T00:54:57.500Z,4.73
2018-05-10T00:57:26.528Z,5.07
2018-05-10T00:59:54.771Z,4.70
2018-05-10T01:02:23.041Z,4.80
2018-05-10T01:04:52.109Z,4.83
2018-05-10T01:07:20.705Z,5.30
2018-05-10T01:09:49.039Z,5.67
2018-05-10T01:12:17.586Z,5.33
2018-05-10T01:14:46.802Z,5.53
2018-05-10T01:17:15.132Z,5.70
2018-05-10T01:19:43.398Z,5.57
2018-05-10T01:22:11.657Z,5.00
2018-05-10T01:24:40.096Z,5.53
2018-05-10T01:27:08.415Z,5.27
2018-05-10T01:29:36.818Z,5.20
2018-05-10T01:32:05.838Z,4.83
2018-05-10T01:34:34.115Z,4.97
2018-05-10T01:37:03.168Z,4.93
2018-05-10T01:39:31.396Z,4.70
2018-05-10T01:41:59.664Z,5.03
2018-05-10T01:44:28.678Z,5.03
2018-05-10T01:46:56.939Z,5.30
2018-05-10T01:49:25.939Z,5.33
2018-05-10T01:51:54.201Z,4.93
2018-05-10T01:54:23.214Z,5.03
2018-05-10T01:56:51.615Z,4.80
2018-05-10T01:59:19.857Z,4.87
2018-05-10T02:01:48.133Z,4.67
2018-05-10T02:04:17.141Z,5.40
2018-05-10T02:06:45.392Z,5.00
2018-05-10T02:09:13.690Z,5.10
2018-05-10T02:11:41.945Z,5.20
2018-05-10T02:14:10.988Z,4.97
2018-05-10T02:16:39.241Z,5.10
2018-05-10T02:19:07.492Z,5.10
2018-05-10T02:21:36.502Z,4.43
2018-05-10T02:24:04.774Z,4.90
2018-05-10T02:26:33.043Z,4.77
2018-05-10T02:29:02.059Z,4.67
2018-05-10T02:31:30.322Z,4.87
2018-05-10T02:33:58.589Z,5.10
2018-05-10T02:36:27.699Z,4.70
2018-05-10T02:38:55.880Z,4.57
2018-05-10T02:41:24.135Z,5.20
2018-05-10T02:43:52.391Z,4.80
2018-05-10T02:46:21.438Z,5.10
2018-05-10T02:48:49.683Z,4.63
2018-05-10T02:51:17.939Z,5.03
2018-05-10T02:53:46.984Z,4.60
2018-05-10T02:56:16.007Z,4.70
2018-05-10T02:58:44.271Z,4.87
2018-05-10T03:01:12.535Z,4.73
2018-05-10T03:03:40.778Z,4.63
2018-05-10T03:06:09.035Z,4.63
2018-05-10T03:08:38.090Z,4.43
2018-05-10T03:11:06.352Z,4.70
2018-05-10T03:13:34.604Z,4.60
2018-05-10T03:16:02.858Z,4.10
2018-05-10T03:18:31.864Z,4.77
2018-05-10T03:21:00.142Z,4.77
2018-05-10T03:23:28.399Z,4.30
2018-05-10T03:25:57.454Z,4.70
2018-05-10T03:28:25.743Z,4.90
2018-05-10T03:30:54.006Z,4.60
2018-05-10T03:33:22.371Z,4.40
2018-05-10T03:35:50.563Z,4.30
2018-05-10T03:38:18.842Z,4.50
2018-05-10T03:40:47.082Z,4.30
2018-05-10T03:43:15.355Z,4.43
2018-05-10T03:45:43.595Z,4.40
2018-05-10T03:48:11.854Z,4.43
2018-05-10T03:50:40.120Z,4.20
2018-05-10T03:53:08.396Z,4.17
2018-05-10T03:55:36.910Z,4.37
2018-05-10T03:58:05.163Z,4.50
2018-05-10T04:00:33.539Z,4.40
2018-05-10T04:06:07.098Z,4.27
2018-05-10T04:08:47.918Z,4.50
2018-05-10T04:11:22.050Z,4.93
2018-05-10T04:13:50.299Z,5.50
2018-05-10T04:16:18.586Z,4.40
2018-05-10T04:18:46.820Z,4.37
2018-05-10T04:21:15.075Z,4.50
2018-05-10T04:23:44.093Z,4.80
2018-05-10T04:26:12.359Z,4.37
2018-05-10T04:28:41.386Z,4.43
2018-05-10T04:31:09.653Z,4.40
2018-05-10T04:33:37.918Z,4.40
2018-05-10T04:36:06.182Z,4.90
2018-05-10T04:38:35.206Z,4.50
2018-05-10T04:41:03.463Z,5.13
2018-05-10T04:43:31.733Z,4.50
2018-05-10T04:46:00.762Z,4.83
2018-05-10T04:48:29.032Z,4.60
2018-05-10T04:50:57.322Z,4.73
2018-05-10T04:53:25.594Z,4.67
2018-05-10T04:55:53.867Z,4.43
2018-05-10T04:58:22.142Z,5.07
2018-05-10T05:00:50.442Z,5.30
2018-05-10T05:03:18.758Z,4.90
2018-05-10T05:05:46.961Z,5.03
2018-05-10T05:08:15.234Z,4.77
2018-05-10T05:10:43.522Z,4.83
2018-05-10T05:13:11.797Z,4.87
2018-05-10T05:15:40.050Z,5.10
2018-05-10T05:18:08.302Z,4.80
2018-05-10T05:20:37.328Z,4.50
2018-05-10T05:23:05.574Z,4.90
2018-05-10T05:25:34.640Z,4.90
2018-05-10T05:28:02.895Z,5.20
2018-05-10T05:30:31.174Z,4.43
2018-05-10T05:32:59.435Z,5.20
2018-05-10T05:35:27.760Z,5.30
2018-05-10T05:37:55.963Z,4.80
2018-05-10T05:40:24.252Z,4.77
2018-05-10T05:42:52.511Z,4.33
2018-05-10T05:45:20.780Z,5.27
2018-05-10T05:47:49.827Z,4.27
2018-05-10T05:50:18.118Z,4.70
2018-05-10T05:52:46.371Z,4.60
2018-05-10T05:55:14.637Z,4.30
2018-05-10T05:57:43.131Z,4.67
2018-05-10T06:00:11.385Z,4.43
2018-05-10T06:02:39.635Z,5.03
2018-05-10T06:05:08.682Z,5.00
2018-05-10T06:07:37.681Z,4.30
2018-05-10T06:10:05.930Z,4.67
2018-05-10T06:12:34.187Z,4.20
2018-05-10T06:15:02.471Z,4.17
2018-05-10T06:17:30.755Z,4.63
2018-05-10T06:19:59.026Z,4.20
2018-05-10T06:22:27.284Z,4.30
2018-05-10T06:24:56.401Z,4.37
2018-05-10T06:27:24.612Z,4.10
2018-05-10T06:29:52.862Z,4.13
2018-05-10T06:32:21.123Z,4.03
2018-05-10T06:34:49.391Z,3.83
2018-05-10T06:37:17.717Z,4.03
2018-05-10T06:39:45.969Z,3.80
2018-05-10T06:42:14.230Z,3.97
2018-05-10T06:44:42.493Z,3.70
2018-05-10T06:47:11.567Z,3.33
2018-05-10T06:49:39.816Z,3.40
2018-05-10T06:52:08.055Z,3.23
2018-05-10T06:54:36.326Z,3.50
2018-05-10T06:57:04.603Z,3.30
2018-05-10T06:59:32.869Z,3.47
2018-05-10T07:02:01.133Z,3.37
2018-05-10T07:04:29.379Z,3.50
2018-05-10T07:06:57.631Z,3.10
2018-05-10T07:09:26.050Z,3.03
2018-05-10T07:11:54.181Z,3.53
2018-05-10T07:14:22.473Z,3.40
2018-05-10T07:16:50.775Z,3.10
2018-05-10T07:19:19.069Z,4.43
2018-05-10T07:21:47.325Z,4.87
2018-05-10T07:24:15.614Z,4.50
2018-05-10T07:26:44.645Z,4.70
2018-05-10T07:29:12.970Z,4.50
2018-05-10T07:31:41.230Z,4.23
2018-05-10T07:34:09.512Z,3.97
2018-05-10T07:36:37.778Z,3.87
2018-05-10T07:39:06.027Z,3.83
2018-05-10T07:41:34.319Z,3.10
2018-05-10T07:44:02.589Z,3.78
2018-05-10T07:46:30.852Z,3.53
2018-05-10T07:48:59.129Z,3.95
2018-05-10T07:51:27.429Z,3.90
2018-05-10T07:53:55.684Z,3.73
2018-05-10T07:56:23.966Z,3.70
2018-05-10T07:58:52.219Z,3.63
2018-05-10T08:01:20.567Z,4.07
2018-05-10T08:03:48.784Z,3.63
2018-05-10T08:06:17.037Z,3.63
2018-05-10T08:08:46.051Z,3.80
2018-05-10T08:11:14.333Z,3.87
2018-05-10T08:13:42.577Z,4.57
2018-05-10T08:16:10.875Z,4.40
2018-05-10T08:18:39.112Z,3.80
2018-05-10T08:21:07.381Z,3.83
2018-05-10T08:23:48.198Z,4.60
2018-05-10T08:26:16.506Z,4.67
2018-05-10T08:28:45.526Z,4.33
2018-05-10T08:31:13.795Z,4.57
2018-05-10T08:33:42.074Z,4.43
2018-05-10T08:36:10.308Z,4.17
2018-05-10T08:38:38.619Z,4.23
2018-05-10T08:41:06.861Z,4.47
2018-05-10T08:43:35.109Z,4.60
2018-05-10T08:46:03.379Z,4.77
2018-05-10T08:48:32.415Z,6.03
2018-05-10T08:51:00.658Z,5.00
2018-05-10T08:53:29.674Z,4.27
2018-05-10T08:55:57.954Z,4.90
2018-05-10T08:58:26.282Z,4.67
2018-05-10T09:00:54.562Z,4.83
2018-05-10T09:03:23.575Z,5.53
2018-05-10T09:05:52.507Z,6.93
2018-05-10T09:08:23.632Z,5.97
2018-05-10T09:10:52.762Z,5.27
2018-05-10T09:13:21.642Z,4.87
2018-05-10T09:15:50.731Z,4.93
2018-05-10T09:18:19.852Z,4.53
2018-05-10T09:20:48.190Z,5.33
2018-05-10T09:23:17.097Z,5.43
2018-05-10T09:25:45.401Z,4.50
2018-05-10T09:28:13.791Z,3.53
2018-05-10T09:30:42.110Z,3.50
2018-05-10T09:33:11.246Z,3.63
2018-05-10T09:35:39.494Z,3.47
2018-05-10T09:38:07.752Z,4.00
2018-05-10T09:40:36.035Z,3.37
2018-05-10T09:43:04.283Z,3.40
2018-05-10T09:45:33.300Z,3.40
2018-05-10T09:48:01.561Z,3.10
2018-05-10T09:50:29.911Z,3.70
2018-05-10T09:52:58.174Z,3.20
2018-05-10T09:55:26.428Z,4.13
2018-05-10T09:57:54.713Z,5.23
2018-05-10T10:00:28.609Z,4.40
2018-05-10T10:02:56.854Z,4.03
2018-05-10T10:05:25.123Z,4.27
2018-05-10T10:07:54.186Z,3.60
2018-05-10T10:10:22.460Z,4.30
2018-05-10T10:12:50.705Z,3.90
2018-05-10T10:15:18.957Z,3.47
2018-05-10T10:17:47.227Z,3.40
2018-05-10T10:20:15.477Z,3.03
2018-05-10T10:22:43.754Z,3.77
2018-05-10T10:25:12.864Z,2.30
2018-05-10T10:27:41.084Z,1.80
2018-05-10T10:30:09.335Z,2.00
2018-05-10T10:32:37.606Z,2.20
2018-05-10T10:35:05.863Z,2.40
2018-05-10T10:37:34.882Z,1.80
2018-05-10T10:40:03.210Z,1.93
2018-05-10T10:42:32.151Z,2.60
2018-05-10T10:45:01.477Z,2.00
2018-05-10T10:47:30.537Z,2.27
2018-05-10T10:49:58.974Z,2.10
2018-05-10T10:52:27.264Z,2.17
2018-05-10T10:54:55.551Z,2.03
2018-05-10T10:57:23.906Z,2.27
2018-05-10T10:59:52.161Z,1.90
2018-05-10T11:02:21.399Z,2.10
2018-05-10T11:04:50.456Z,2.17
2018-05-10T11:07:18.706Z,2.10
2018-05-10T11:09:47.050Z,2.40
2018-05-10T11:12:15.331Z,1.80
2018-05-10T11:14:44.373Z,1.63
2018-05-10T11:17:12.629Z,1.60
2018-05-10T11:19:40.959Z,2.50
2018-05-10T11:22:09.860Z,2.20
2018-05-10T11:24:38.337Z,2.00
2018-05-10T11:27:06.751Z,2.37
2018-05-10T11:29:35.329Z,1.73
2018-05-10T11:32:03.655Z,1.77
2018-05-10T11:34:33.956Z,1.93
2018-05-10T11:37:02.222Z,1.90
2018-05-10T11:39:30.621Z,1.97
2018-05-10T11:41:58.872Z,1.77
2018-05-10T11:44:27.676Z,2.10
2018-05-10T11:46:55.986Z,1.90
2018-05-10T11:49:24.358Z,1.80
2018-05-10T11:51:52.650Z,1.70
2018-05-10T11:54:21.416Z,1.70
2018-05-10T11:56:49.776Z,1.93
2018-05-10T11:59:18.102Z,2.07
2018-05-10T12:01:46.401Z,2.37
2018-05-10T12:04:14.965Z,1.70
2018-05-10T12:06:43.242Z,2.53
2018-05-10T12:09:11.799Z,1.80
2018-05-10T12:11:40.322Z,2.03
2018-05-10T12:14:09.795Z,1.77
2018-05-10T12:16:38.469Z,1.93
2018-05-10T12:19:06.773Z,2.30
2018-05-10T12:21:34.980Z,1.87
2018-05-10T12:24:03.259Z,1.93
2018-05-10T12:26:31.574Z,2.00
2018-05-10T12:29:00.712Z,2.07
2018-05-10T12:31:29.828Z,2.40
2018-05-10T12:33:58.094Z,2.40
2018-05-10T12:36:26.819Z,2.80
2018-05-10T12:38:55.091Z,2.73
2018-05-10T12:41:23.390Z,3.47
2018-05-10T12:43:51.668Z,2.50
2018-05-10T12:46:19.979Z,2.17
2018-05-10T12:48:49.055Z,2.70
2018-05-10T12:51:17.348Z,1.97
2018-05-10T12:53:45.627Z,2.10
2018-05-10T12:56:14.062Z,2.20
2018-05-10T12:58:42.209Z,3.20
2018-05-10T13:01:11.250Z,2.47
2018-05-10T13:03:39.547Z,3.43
2018-05-10T13:06:08.588Z,3.20
2018-05-10T13:08:36.882Z,3.03
2018-05-10T13:11:05.162Z,2.73
2018-05-10T13:13:33.445Z,2.63
2018-05-10T13:16:01.746Z,2.80
2018-05-10T13:18:30.016Z,2.50
2018-05-10T13:20:58.299Z,2.80
2018-05-10T13:23:27.332Z,2.17
2018-05-10T13:25:56.551Z,2.50
2018-05-10T13:28:24.850Z,2.70
2018-05-10T13:30:53.134Z,2.33
2018-05-10T13:33:21.413Z,2.13
2018-05-10T13:35:49.685Z,2.37
2018-05-10T13:38:17.940Z,1.90
2018-05-10T13:40:46.242Z,3.43
2018-05-10T13:43:14.515Z,2.23
2018-05-10T13:45:42.784Z,1.70
2018-05-10T13:48:11.097Z,1.67
2018-05-10T13:50:40.115Z,1.30
2018-05-10T13:53:08.396Z,1.13
2018-05-10T13:55:37.736Z,1.40
2018-05-10T13:58:05.986Z,1.00
2018-05-10T14:00:34.326Z,0.90
2018-05-10T14:03:02.627Z,1.13
2018-05-10T14:05:30.969Z,1.00
2018-05-10T14:07:59.260Z,0.87
2018-05-10T14:10:27.564Z,0.83
2018-05-10T14:12:56.109Z,1.23
2018-05-10T14:15:24.967Z,1.33
2018-05-10T14:17:53.308Z,1.10
2018-05-10T14:20:21.996Z,1.70
2018-05-10T14:22:50.313Z,3.00
2018-05-10T14:25:18.613Z,3.40
2018-05-10T14:27:46.995Z,3.50
2018-05-10T14:30:16.184Z,4.97
2018-05-10T14:32:44.699Z,5.03
2018-05-10T14:35:13.133Z,4.90
2018-05-10T14:37:41.399Z,5.73
2018-05-10T14:40:10.819Z,6.20
2018-05-10T14:42:39.132Z,4.37
2018-05-10T14:45:07.454Z,4.70
2018-05-10T14:47:35.891Z,4.23
2018-05-10T14:50:04.275Z,4.40
2018-05-10T14:52:32.536Z,3.97
2018-05-10T14:55:01.657Z,4.50
2018-05-10T14:57:29.941Z,4.73
2018-05-10T14:59:58.200Z,6.57
2018-05-10T15:02:26.492Z,6.50
2018-05-10T15:04:54.775Z,4.60
2018-05-10T15:07:23.093Z,5.53
2018-05-10T15:09:51.494Z,7.33
2018-05-10T15:12:19.706Z,4.57
2018-05-10T15:14:47.987Z,5.97
2018-05-10T15:17:16.269Z,4.53
2018-05-10T15:19:44.585Z,5.60
2018-05-10T15:22:12.874Z,4.33
2018-05-10T15:24:41.173Z,5.47
2018-05-10T15:27:09.425Z,7.47
2018-05-10T15:29:37.696Z,3.80
2018-05-10T15:32:06.035Z,4.13
2018-05-10T15:34:34.732Z,3.87
2018-05-10T15:37:03.041Z,3.83
2018-05-10T15:39:31.457Z,4.40
2018-05-10T15:41:59.707Z,3.83
2018-05-10T15:44:28.077Z,4.17
2018-05-10T15:46:56.438Z,3.50
2018-05-10T15:49:24.838Z,5.10
2018-05-10T15:51:53.170Z,3.30
2018-05-10T15:54:21.407Z,3.17
2018-05-10T15:56:49.720Z,3.63
2018-05-10T15:59:18.017Z,2.87
2018-05-10T16:01:47.287Z,2.80
2018-05-10T16:04:15.981Z,2.73
2018-05-10T16:06:45.071Z,3.13
2018-05-10T16:09:13.315Z,3.27
2018-05-10T16:11:41.592Z,2.70
2018-05-10T16:14:09.897Z,2.63
2018-05-10T16:16:38.303Z,3.20
2018-05-10T16:19:07.372Z,3.00
2018-05-10T16:21:35.684Z,3.30
2018-05-10T16:24:04.703Z,3.60
2018-05-10T16:26:33.210Z,2.60
2018-05-10T16:29:01.417Z,2.73
2018-05-10T16:31:29.769Z,2.83
2018-05-10T16:33:58.056Z,2.70
2018-05-10T16:36:26.340Z,2.80
2018-05-10T16:38:54.692Z,2.63
2018-05-10T16:41:22.972Z,2.27
2018-05-10T16:43:51.251Z,2.53
2018-05-10T16:46:19.524Z,2.90
2018-05-10T16:48:48.552Z,3.00
2018-05-10T16:51:17.426Z,2.90
2018-05-10T16:53:46.737Z,2.70
2018-05-10T16:56:15.050Z,3.33
2018-05-10T16:58:43.291Z,3.20
2018-05-10T17:01:11.879Z,3.50
2018-05-10T17:03:40.199Z,3.47
2018-05-10T17:06:08.486Z,3.17
2018-05-10T17:08:36.759Z,3.43
2018-05-10T17:11:05.865Z,3.40
2018-05-10T17:13:34.186Z,3.43
2018-05-10T17:16:03.074Z,3.50
2018-05-10T17:18:31.361Z,4.10
2018-05-10T17:20:59.984Z,3.80
2018-05-10T17:23:28.377Z,3.70
2018-05-10T17:25:56.637Z,4.43
2018-05-10T17:28:24.901Z,3.87
2018-05-10T17:30:53.157Z,3.87
2018-05-10T17:33:21.527Z,3.70
2018-05-10T17:35:50.612Z,3.80
2018-05-10T17:38:19.967Z,3.73
2018-05-10T17:40:48.236Z,4.00
2018-05-10T17:43:17.561Z,4.10
2018-05-10T17:45:46.181Z,3.40
2018-05-10T17:48:15.354Z,3.43
2018-05-10T17:50:43.677Z,4.10
2018-05-10T17:53:11.949Z,3.50
2018-05-10T17:55:40.212Z,3.67
2018-05-10T17:58:09.299Z,3.60
2018-05-10T18:00:38.532Z,3.63
2018-05-10T18:03:06.763Z,3.77
2018-05-10T18:05:35.045Z,3.80
2018-05-10T18:08:03.317Z,4.00
2018-05-10T18:10:31.873Z,3.50
2018-05-10T18:13:00.131Z,3.60
2018-05-10T18:15:28.546Z,4.00
2018-05-10T18:17:56.790Z,4.23
2018-05-10T18:20:25.077Z,4.73
2018-05-10T18:22:53.849Z,4.20
2018-05-10T18:25:22.288Z,3.70
2018-05-10T18:27:50.901Z,3.97
2018-05-10T18:30:19.210Z,5.50
2018-05-10T18:32:47.467Z,3.97
2018-05-10T18:35:15.783Z,3.50
2018-05-10T18:37:44.175Z,4.10
2018-05-10T18:40:12.433Z,4.07
2018-05-10T18:42:40.712Z,4.87
2018-05-10T18:45:09.246Z,5.70
2018-05-10T18:47:37.652Z,4.20
2018-05-10T18:50:06.149Z,5.13
2018-05-10T18:52:34.450Z,4.63
2018-05-10T18:55:03.231Z,6.30
2018-05-10T18:57:31.976Z,5.63
2018-05-10T19:00:01.629Z,4.10
2018-05-10T19:02:30.196Z,3.43
2018-05-10T19:04:58.668Z,4.47
2018-05-10T19:07:26.983Z,3.93
2018-05-10T19:09:55.253Z,4.90
2018-05-10T19:12:23.524Z,4.87
2018-05-10T19:14:52.601Z,4.13
2018-05-10T19:17:20.954Z,3.50
2018-05-10T19:19:49.283Z,3.50
2018-05-10T19:22:17.561Z,4.23
2018-05-10T19:24:45.914Z,4.10
2018-05-10T19:27:14.183Z,3.50
2018-05-10T19:29:42.468Z,4.40
2018-05-10T19:32:10.769Z,3.53
2018-05-10T19:34:39.303Z,3.53
2018-05-10T19:37:07.599Z,3.13
2018-05-10T19:39:35.868Z,3.50
2018-05-10T19:42:04.153Z,3.40
2018-05-10T19:44:32.433Z,3.60
2018-05-10T19:47:00.710Z,3.80
2018-05-10T19:49:28.978Z,3.27
2018-05-10T19:51:57.317Z,4.07
2018-05-10T19:54:25.632Z,2.87
2018-05-10T19:56:54.643Z,3.60
2018-05-10T19:59:22.903Z,3.20
2018-05-10T20:01:51.171Z,3.03
2018-05-10T20:04:19.433Z,3.10
2018-05-10T20:06:47.740Z,4.03
2018-05-10T20:09:16.032Z,3.90
2018-05-10T20:11:45.199Z,2.93
2018-05-10T20:14:13.730Z,3.13
2018-05-10T20:16:42.786Z,2.87
2018-05-10T20:19:11.067Z,3.87
2018-05-10T20:21:39.344Z,3.40
2018-05-10T20:24:07.758Z,2.73
2018-05-10T20:26:35.959Z,2.92
2018-05-10T20:29:04.236Z,2.90
2018-05-10T20:31:32.477Z,3.13
2018-05-10T20:34:00.750Z,4.00
2018-05-10T20:36:29.703Z,4.13
2018-05-10T20:38:58.464Z,3.70
2018-05-10T20:41:26.847Z,3.70
2018-05-10T20:43:55.162Z,4.50
2018-05-10T20:46:23.427Z,4.80
2018-05-10T20:48:51.704Z,7.67
2018-05-10T20:51:19.979Z,5.97
2018-05-10T20:53:48.254Z,4.30
2018-05-10T20:56:16.585Z,4.07
2018-05-10T20:58:44.844Z,4.07
2018-05-10T21:01:13.887Z,3.93
2018-05-10T21:03:42.241Z,3.40
2018-05-10T21:06:10.410Z,3.00
2018-05-10T21:08:38.722Z,2.90
2018-05-10T21:11:07.150Z,3.30
2018-05-10T21:13:36.207Z,3.10
2018-05-10T21:16:04.656Z,3.37
2018-05-10T21:18:32.923Z,3.17
2018-05-10T21:21:01.179Z,2.87
2018-05-10T21:23:30.361Z,2.73
2018-05-10T21:25:59.432Z,3.33
2018-05-10T21:28:28.861Z,3.60
2018-05-10T21:30:57.171Z,3.40
2018-05-10T21:33:25.425Z,3.33
2018-05-10T21:35:54.488Z,3.57
2018-05-10T21:38:22.764Z,3.67
2018-05-10T21:40:51.600Z,3.47
2018-05-10T21:43:19.861Z,3.50
2018-05-10T21:45:48.143Z,3.53
2018-05-10T21:48:16.502Z,3.20
2018-05-10T21:50:44.829Z,3.30
2018-05-10T21:53:13.538Z,3.20
2018-05-10T21:55:41.698Z,3.07
2018-05-10T21:58:10.002Z,3.30
2018-05-10T22:00:38.552Z,2.90
2018-05-10T22:03:06.839Z,2.53
2018-05-10T22:05:35.266Z,3.13
2018-05-10T22:08:04.298Z,2.97
2018-05-10T22:10:32.598Z,3.27
2018-05-10T22:13:01.507Z,3.10
2018-05-10T22:15:29.783Z,3.13
2018-05-10T22:17:58.047Z,3.60
2018-05-10T22:20:26.381Z,3.20
2018-05-10T22:22:54.849Z,3.17
2018-05-10T22:25:23.188Z,3.50
2018-05-10T22:27:51.544Z,4.53
2018-05-10T22:30:19.798Z,3.63
2018-05-10T22:32:48.074Z,3.27
2018-05-10T22:35:16.355Z,2.90
2018-05-10T22:37:44.618Z,3.53
2018-05-10T22:40:12.946Z,3.17
2018-05-10T22:42:41.201Z,2.90
2018-05-10T22:45:09.448Z,2.77
2018-05-10T22:47:37.792Z,3.00
2018-05-10T22:50:06.069Z,3.10
2018-05-10T22:52:34.327Z,3.00
2018-05-10T22:55:02.711Z,2.93
2018-05-10T22:57:30.990Z,3.00
2018-05-10T22:59:59.243Z,3.43
2018-05-10T23:02:27.512Z,2.73
2018-05-10T23:04:55.775Z,3.43
2018-05-10T23:07:24.066Z,3.20
2018-05-10T23:09:52.330Z,3.27
2018-05-10T23:12:20.596Z,2.57
2018-05-10T23:14:49.020Z,3.17
2018-05-10T23:17:17.300Z,2.87
2018-05-10T23:19:45.568Z,2.70
2018-05-10T23:22:13.828Z,2.70
2018-05-10T23:24:42.115Z,3.03
2018-05-10T23:27:10.392Z,3.07
2018-05-10T23:29:38.756Z,3.07
2018-05-10T23:32:07.016Z,3.00
2018-05-10T23:34:35.404Z,3.20
2018-05-10T23:37:03.658Z,3.23
2018-05-10T23:39:32.069Z,3.00
2018-05-10T23:42:00.565Z,3.43
2018-05-10T23:44:29.701Z,3.67
2018-05-10T23:46:58.832Z,3.20
2018-05-10T23:49:27.142Z,2.87
2018-05-10T23:51:55.711Z,3.13
2018-05-10T23:54:24.224Z,3.37
2018-05-10T23:56:53.124Z,3.50
2018-05-10T23:59:22.161Z,3.00
